sensor_id;sensor_type;location;lat;lon;timestamp;P1;durP1;ratioP1;P2;durP2;ratioP2
51266;SDS011;37338;47.426;19.204;2023-09-19T00:00:42;5.82;;;4.07;;
51266;SDS011;37338;47.426;19.204;2023-09-19T00:03:09;7.25;;;3.60;;
51266;SDS011;37338;47.426;19.204;2023-09-19T00:05:35;10.38;;;3.50;;
51266;SDS011;37338;47.426;19.204;2023-09-19T00:08:02;8.40;;;3.55;;
51266;SDS011;37338;47.426;19.204;2023-09-19T00:10:29;6.65;;;3.70;;
51266;SDS011;37338;47.426;19.204;2023-09-19T00:13:00;7.53;;;4.35;;
51266;SDS011;37338;47.426;19.204;2023-09-19T00:15:26;13.00;;;4.00;;
51266;SDS011;37338;47.426;19.204;2023-09-19T00:17:54;9.55;;;4.70;;
51266;SDS011;37338;47.426;19.204;2023-09-19T00:20:19;8.23;;;3.72;;
51266;SDS011;37338;47.426;19.204;2023-09-19T00:22:47;9.45;;;3.58;;
51266;SDS011;37338;47.426;19.204;2023-09-19T00:25:14;6.43;;;4.05;;
51266;SDS011;37338;47.426;19.204;2023-09-19T00:27:40;4.57;;;3.40;;
51266;SDS011;37338;47.426;19.204;2023-09-19T00:30:07;4.22;;;3.83;;
51266;SDS011;37338;47.426;19.204;2023-09-19T00:32:38;14.65;;;4.20;;
51266;SDS011;37338;47.426;19.204;2023-09-19T00:35:03;11.07;;;3.80;;
51266;SDS011;37338;47.426;19.204;2023-09-19T00:37:29;18.77;;;5.88;;
51266;SDS011;37338;47.426;19.204;2023-09-19T00:39:55;15.90;;;4.00;;
51266;SDS011;37338;47.426;19.204;2023-09-19T00:42:20;14.95;;;4.40;;
51266;SDS011;37338;47.426;19.204;2023-09-19T00:44:46;15.07;;;4.50;;
51266;SDS011;37338;47.426;19.204;2023-09-19T00:47:12;7.57;;;3.55;;
51266;SDS011;37338;47.426;19.204;2023-09-19T00:49:42;9.68;;;4.15;;
51266;SDS011;37338;47.426;19.204;2023-09-19T00:52:08;12.05;;;4.65;;
51266;SDS011;37338;47.426;19.204;2023-09-19T00:54:35;9.00;;;4.70;;
51266;SDS011;37338;47.426;19.204;2023-09-19T00:57:01;13.55;;;5.50;;
51266;SDS011;37338;47.426;19.204;2023-09-19T00:59:27;16.85;;;4.60;;
51266;SDS011;37338;47.426;19.204;2023-09-19T01:01:53;9.98;;;4.28;;
51266;SDS011;37338;47.426;19.204;2023-09-19T01:04:19;11.32;;;4.68;;
51266;SDS011;37338;47.426;19.204;2023-09-19T01:06:45;7.93;;;5.00;;
51266;SDS011;37338;47.426;19.204;2023-09-19T01:09:11;7.47;;;3.90;;
51266;SDS011;37338;47.426;19.204;2023-09-19T01:11:43;10.13;;;4.03;;
51266;SDS011;37338;47.426;19.204;2023-09-19T01:17:02;8.38;;;4.30;;
51266;SDS011;37338;47.426;19.204;2023-09-19T01:31:44;10.88;;;4.20;;
51266;SDS011;37338;47.426;19.204;2023-09-19T01:34:10;10.02;;;5.22;;
51266;SDS011;37338;47.426;19.204;2023-09-19T01:36:35;7.25;;;3.88;;
51266;SDS011;37338;47.426;19.204;2023-09-19T01:39:07;5.75;;;4.20;;
51266;SDS011;37338;47.426;19.204;2023-09-19T01:44:13;8.57;;;4.88;;
51266;SDS011;37338;47.426;19.204;2023-09-19T01:46:43;16.70;;;4.82;;
51266;SDS011;37338;47.426;19.204;2023-09-19T01:54:27;9.07;;;4.13;;
51266;SDS011;37338;47.426;19.204;2023-09-19T01:57:02;9.77;;;3.92;;
51266;SDS011;37338;47.426;19.204;2023-09-19T01:59:35;9.63;;;4.60;;
51266;SDS011;37338;47.426;19.204;2023-09-19T02:02:06;10.65;;;4.30;;
51266;SDS011;37338;47.426;19.204;2023-09-19T02:04:32;10.80;;;4.38;;
51266;SDS011;37338;47.426;19.204;2023-09-19T02:07:00;6.75;;;4.95;;
51266;SDS011;37338;47.426;19.204;2023-09-19T02:09:26;9.95;;;4.15;;
51266;SDS011;37338;47.426;19.204;2023-09-19T02:11:51;7.22;;;4.22;;
51266;SDS011;37338;47.426;19.204;2023-09-19T02:14:17;10.32;;;4.78;;
51266;SDS011;37338;47.426;19.204;2023-09-19T02:16:44;10.80;;;4.07;;
51266;SDS011;37338;47.426;19.204;2023-09-19T02:19:10;13.93;;;4.95;;
51266;SDS011;37338;47.426;19.204;2023-09-19T02:21:35;10.23;;;4.57;;
51266;SDS011;37338;47.426;19.204;2023-09-19T02:24:01;28.27;;;5.32;;
51266;SDS011;37338;47.426;19.204;2023-09-19T02:26:28;7.47;;;4.90;;
51266;SDS011;37338;47.426;19.204;2023-09-19T02:28:53;9.13;;;4.70;;
51266;SDS011;37338;47.426;19.204;2023-09-19T02:31:19;10.98;;;4.43;;
51266;SDS011;37338;47.426;19.204;2023-09-19T02:33:44;13.40;;;4.20;;
51266;SDS011;37338;47.426;19.204;2023-09-19T02:36:11;15.07;;;5.63;;
51266;SDS011;37338;47.426;19.204;2023-09-19T02:38:36;13.93;;;4.57;;
51266;SDS011;37338;47.426;19.204;2023-09-19T02:41:02;17.73;;;4.93;;
51266;SDS011;37338;47.426;19.204;2023-09-19T02:43:28;9.73;;;4.85;;
51266;SDS011;37338;47.426;19.204;2023-09-19T02:45:53;10.30;;;4.55;;
51266;SDS011;37338;47.426;19.204;2023-09-19T02:48:19;8.88;;;5.00;;
51266;SDS011;37338;47.426;19.204;2023-09-19T02:50:45;13.38;;;5.25;;
51266;SDS011;37338;47.426;19.204;2023-09-19T02:53:19;8.43;;;4.20;;
51266;SDS011;37338;47.426;19.204;2023-09-19T02:55:46;15.95;;;6.10;;
51266;SDS011;37338;47.426;19.204;2023-09-19T02:58:12;10.07;;;4.82;;
51266;SDS011;37338;47.426;19.204;2023-09-19T03:00:39;9.05;;;4.72;;
51266;SDS011;37338;47.426;19.204;2023-09-19T03:03:07;16.10;;;4.85;;
51266;SDS011;37338;47.426;19.204;2023-09-19T03:05:33;10.98;;;4.28;;
51266;SDS011;37338;47.426;19.204;2023-09-19T03:07:59;9.57;;;4.30;;
51266;SDS011;37338;47.426;19.204;2023-09-19T03:10:25;7.30;;;4.68;;
51266;SDS011;37338;47.426;19.204;2023-09-19T03:12:51;5.63;;;4.63;;
51266;SDS011;37338;47.426;19.204;2023-09-19T03:15:17;10.50;;;4.70;;
51266;SDS011;37338;47.426;19.204;2023-09-19T03:17:43;13.38;;;4.80;;
51266;SDS011;37338;47.426;19.204;2023-09-19T03:20:10;10.48;;;5.00;;
51266;SDS011;37338;47.426;19.204;2023-09-19T03:22:38;14.43;;;4.55;;
51266;SDS011;37338;47.426;19.204;2023-09-19T03:25:03;9.95;;;4.63;;
51266;SDS011;37338;47.426;19.204;2023-09-19T03:27:33;9.52;;;4.20;;
51266;SDS011;37338;47.426;19.204;2023-09-19T03:29:59;8.25;;;4.15;;
51266;SDS011;37338;47.426;19.204;2023-09-19T03:32:24;9.75;;;4.75;;
51266;SDS011;37338;47.426;19.204;2023-09-19T03:34:49;6.10;;;4.93;;
51266;SDS011;37338;47.426;19.204;2023-09-19T03:37:15;9.48;;;4.50;;
51266;SDS011;37338;47.426;19.204;2023-09-19T03:39:40;18.20;;;5.50;;
51266;SDS011;37338;47.426;19.204;2023-09-19T03:42:06;9.77;;;5.50;;
51266;SDS011;37338;47.426;19.204;2023-09-19T03:44:32;13.68;;;5.18;;
51266;SDS011;37338;47.426;19.204;2023-09-19T03:46:58;6.55;;;4.72;;
51266;SDS011;37338;47.426;19.204;2023-09-19T03:49:23;15.32;;;4.97;;
51266;SDS011;37338;47.426;19.204;2023-09-19T03:51:49;9.80;;;4.35;;
51266;SDS011;37338;47.426;19.204;2023-09-19T03:54:14;8.10;;;4.30;;
51266;SDS011;37338;47.426;19.204;2023-09-19T03:56:39;12.60;;;5.00;;
51266;SDS011;37338;47.426;19.204;2023-09-19T03:59:05;11.85;;;6.65;;
51266;SDS011;37338;47.426;19.204;2023-09-19T04:01:30;16.15;;;5.68;;
51266;SDS011;37338;47.426;19.204;2023-09-19T04:03:58;12.30;;;4.97;;
51266;SDS011;37338;47.426;19.204;2023-09-19T04:06:24;11.05;;;4.53;;
51266;SDS011;37338;47.426;19.204;2023-09-19T04:08:49;8.52;;;4.63;;
51266;SDS011;37338;47.426;19.204;2023-09-19T04:11:15;10.65;;;5.35;;
51266;SDS011;37338;47.426;19.204;2023-09-19T04:13:40;12.25;;;4.90;;
51266;SDS011;37338;47.426;19.204;2023-09-19T04:16:05;9.93;;;5.25;;
51266;SDS011;37338;47.426;19.204;2023-09-19T04:18:34;12.70;;;5.45;;
51266;SDS011;37338;47.426;19.204;2023-09-19T04:21:03;13.15;;;5.72;;
51266;SDS011;37338;47.426;19.204;2023-09-19T04:23:29;9.05;;;4.45;;
51266;SDS011;37338;47.426;19.204;2023-09-19T04:25:55;9.38;;;4.50;;
51266;SDS011;37338;47.426;19.204;2023-09-19T04:28:21;10.40;;;4.90;;
51266;SDS011;37338;47.426;19.204;2023-09-19T04:30:48;10.05;;;5.20;;
51266;SDS011;37338;47.426;19.204;2023-09-19T04:33:13;10.07;;;4.95;;
51266;SDS011;37338;47.426;19.204;2023-09-19T04:35:39;9.07;;;5.78;;
51266;SDS011;37338;47.426;19.204;2023-09-19T04:38:07;14.40;;;5.60;;
51266;SDS011;37338;47.426;19.204;2023-09-19T04:40:32;12.50;;;5.68;;
51266;SDS011;37338;47.426;19.204;2023-09-19T04:42:59;14.38;;;6.13;;
51266;SDS011;37338;47.426;19.204;2023-09-19T04:45:25;24.95;;;5.57;;
51266;SDS011;37338;47.426;19.204;2023-09-19T04:47:54;8.93;;;5.40;;
51266;SDS011;37338;47.426;19.204;2023-09-19T04:50:20;13.25;;;6.13;;
51266;SDS011;37338;47.426;19.204;2023-09-19T04:52:48;17.67;;;6.65;;
51266;SDS011;37338;47.426;19.204;2023-09-19T04:55:15;11.25;;;5.30;;
51266;SDS011;37338;47.426;19.204;2023-09-19T04:57:42;34.80;;;7.63;;
51266;SDS011;37338;47.426;19.204;2023-09-19T05:00:14;29.55;;;6.50;;
51266;SDS011;37338;47.426;19.204;2023-09-19T05:02:42;15.30;;;6.15;;
51266;SDS011;37338;47.426;19.204;2023-09-19T05:05:08;19.02;;;5.70;;
51266;SDS011;37338;47.426;19.204;2023-09-19T05:07:35;27.27;;;7.13;;
51266;SDS011;37338;47.426;19.204;2023-09-19T05:10:01;13.65;;;7.00;;
51266;SDS011;37338;47.426;19.204;2023-09-19T05:12:30;21.55;;;6.32;;
51266;SDS011;37338;47.426;19.204;2023-09-19T05:14:56;13.23;;;6.47;;
51266;SDS011;37338;47.426;19.204;2023-09-19T05:17:22;13.23;;;6.55;;
51266;SDS011;37338;47.426;19.204;2023-09-19T05:19:49;16.25;;;6.22;;
51266;SDS011;37338;47.426;19.204;2023-09-19T05:22:15;20.77;;;4.93;;
51266;SDS011;37338;47.426;19.204;2023-09-19T05:24:40;13.98;;;3.83;;
51266;SDS011;37338;47.426;19.204;2023-09-19T05:27:05;8.63;;;3.70;;
51266;SDS011;37338;47.426;19.204;2023-09-19T05:29:32;8.88;;;3.15;;
51266;SDS011;37338;47.426;19.204;2023-09-19T05:31:58;13.57;;;1.65;;
51266;SDS011;37338;47.426;19.204;2023-09-19T05:34:24;13.55;;;1.15;;
51266;SDS011;37338;47.426;19.204;2023-09-19T05:36:53;11.40;;;1.30;;
51266;SDS011;37338;47.426;19.204;2023-09-19T05:39:19;20.02;;;1.77;;
51266;SDS011;37338;47.426;19.204;2023-09-19T05:41:44;6.93;;;0.68;;
51266;SDS011;37338;47.426;19.204;2023-09-19T05:44:12;2.75;;;0.40;;
51266;SDS011;37338;47.426;19.204;2023-09-19T05:46:39;4.72;;;0.70;;
51266;SDS011;37338;47.426;19.204;2023-09-19T05:49:04;6.47;;;0.75;;
51266;SDS011;37338;47.426;19.204;2023-09-19T05:51:30;5.72;;;0.65;;
51266;SDS011;37338;47.426;19.204;2023-09-19T05:53:55;2.85;;;0.40;;
51266;SDS011;37338;47.426;19.204;2023-09-19T05:56:21;10.05;;;1.13;;
51266;SDS011;37338;47.426;19.204;2023-09-19T05:58:47;3.35;;;0.43;;
51266;SDS011;37338;47.426;19.204;2023-09-19T06:01:12;8.45;;;0.40;;
51266;SDS011;37338;47.426;19.204;2023-09-19T06:03:38;4.50;;;0.40;;
51266;SDS011;37338;47.426;19.204;2023-09-19T06:06:03;5.57;;;0.50;;
51266;SDS011;37338;47.426;19.204;2023-09-19T06:08:31;2.10;;;0.30;;
51266;SDS011;37338;47.426;19.204;2023-09-19T06:10:57;1.80;;;0.30;;
51266;SDS011;37338;47.426;19.204;2023-09-19T06:13:22;1.42;;;0.13;;
51266;SDS011;37338;47.426;19.204;2023-09-19T06:15:50;1.05;;;0.20;;
51266;SDS011;37338;47.426;19.204;2023-09-19T06:18:16;3.00;;;0.40;;
51266;SDS011;37338;47.426;19.204;2023-09-19T06:20:46;1.42;;;0.38;;
51266;SDS011;37338;47.426;19.204;2023-09-19T06:23:12;1.73;;;0.13;;
51266;SDS011;37338;47.426;19.204;2023-09-19T06:25:38;2.22;;;0.17;;
51266;SDS011;37338;47.426;19.204;2023-09-19T06:28:04;6.25;;;0.40;;
51266;SDS011;37338;47.426;19.204;2023-09-19T06:30:30;1.73;;;0.10;;
51266;SDS011;37338;47.426;19.204;2023-09-19T06:32:57;0.98;;;0.17;;
51266;SDS011;37338;47.426;19.204;2023-09-19T06:35:23;0.55;;;0.15;;
51266;SDS011;37338;47.426;19.204;2023-09-19T06:37:51;3.58;;;0.40;;
51266;SDS011;37338;47.426;19.204;2023-09-19T06:40:17;2.90;;;0.40;;
51266;SDS011;37338;47.426;19.204;2023-09-19T06:42:45;1.88;;;0.30;;
51266;SDS011;37338;47.426;19.204;2023-09-19T06:45:15;1.83;;;0.40;;
51266;SDS011;37338;47.426;19.204;2023-09-19T06:47:48;2.38;;;0.30;;
51266;SDS011;37338;47.426;19.204;2023-09-19T06:50:16;1.75;;;0.28;;
51266;SDS011;37338;47.426;19.204;2023-09-19T06:52:44;2.33;;;0.20;;
51266;SDS011;37338;47.426;19.204;2023-09-19T06:55:13;0.60;;;0.20;;
51266;SDS011;37338;47.426;19.204;2023-09-19T06:57:41;6.97;;;0.45;;
51266;SDS011;37338;47.426;19.204;2023-09-19T07:00:10;1.80;;;0.40;;
51266;SDS011;37338;47.426;19.204;2023-09-19T07:02:41;2.63;;;0.30;;
51266;SDS011;37338;47.426;19.204;2023-09-19T07:05:07;1.42;;;0.10;;
51266;SDS011;37338;47.426;19.204;2023-09-19T07:07:32;1.70;;;0.30;;
51266;SDS011;37338;47.426;19.204;2023-09-19T07:10:00;0.30;;;0.10;;
51266;SDS011;37338;47.426;19.204;2023-09-19T07:12:30;0.65;;;0.20;;
51266;SDS011;37338;47.426;19.204;2023-09-19T07:14:56;1.80;;;0.17;;
51266;SDS011;37338;47.426;19.204;2023-09-19T07:17:22;1.40;;;0.32;;
51266;SDS011;37338;47.426;19.204;2023-09-19T07:19:49;1.27;;;0.35;;
51266;SDS011;37338;47.426;19.204;2023-09-19T07:22:15;0.88;;;0.20;;
51266;SDS011;37338;47.426;19.204;2023-09-19T07:24:40;0.52;;;0.13;;
51266;SDS011;37338;47.426;19.204;2023-09-19T07:27:06;2.30;;;0.17;;
51266;SDS011;37338;47.426;19.204;2023-09-19T07:29:31;0.93;;;0.70;;
51266;SDS011;37338;47.426;19.204;2023-09-19T07:31:57;0.22;;;0.20;;
51266;SDS011;37338;47.426;19.204;2023-09-19T07:34:22;2.25;;;0.10;;
51266;SDS011;37338;47.426;19.204;2023-09-19T07:36:49;2.05;;;0.20;;
51266;SDS011;37338;47.426;19.204;2023-09-19T07:39:15;1.15;;;0.10;;
51266;SDS011;37338;47.426;19.204;2023-09-19T07:41:40;1.60;;;0.22;;
51266;SDS011;37338;47.426;19.204;2023-09-19T07:44:06;0.65;;;0.20;;
51266;SDS011;37338;47.426;19.204;2023-09-19T07:46:32;1.60;;;0.20;;
51266;SDS011;37338;47.426;19.204;2023-09-19T07:48:58;1.25;;;0.30;;
51266;SDS011;37338;47.426;19.204;2023-09-19T07:51:23;2.90;;;0.10;;
51266;SDS011;37338;47.426;19.204;2023-09-19T07:53:49;1.60;;;0.10;;
51266;SDS011;37338;47.426;19.204;2023-09-19T07:56:14;0.70;;;0.38;;
51266;SDS011;37338;47.426;19.204;2023-09-19T07:58:40;1.30;;;0.47;;
51266;SDS011;37338;47.426;19.204;2023-09-19T08:01:09;2.45;;;0.20;;
51266;SDS011;37338;47.426;19.204;2023-09-19T08:03:35;1.38;;;0.25;;
51266;SDS011;37338;47.426;19.204;2023-09-19T08:06:05;1.65;;;0.90;;
51266;SDS011;37338;47.426;19.204;2023-09-19T08:08:32;2.40;;;0.20;;
51266;SDS011;37338;47.426;19.204;2023-09-19T08:10:57;2.60;;;0.30;;
51266;SDS011;37338;47.426;19.204;2023-09-19T08:13:23;1.95;;;0.20;;
51266;SDS011;37338;47.426;19.204;2023-09-19T08:15:49;1.52;;;0.30;;
51266;SDS011;37338;47.426;19.204;2023-09-19T08:18:16;2.30;;;0.30;;
51266;SDS011;37338;47.426;19.204;2023-09-19T08:20:41;1.60;;;0.32;;
51266;SDS011;37338;47.426;19.204;2023-09-19T08:23:11;2.33;;;0.45;;
51266;SDS011;37338;47.426;19.204;2023-09-19T08:25:37;0.65;;;0.32;;
51266;SDS011;37338;47.426;19.204;2023-09-19T08:28:04;1.15;;;0.40;;
51266;SDS011;37338;47.426;19.204;2023-09-19T08:30:33;1.98;;;0.22;;
51266;SDS011;37338;47.426;19.204;2023-09-19T08:33:00;0.95;;;0.30;;
51266;SDS011;37338;47.426;19.204;2023-09-19T08:35:26;1.05;;;0.45;;
51266;SDS011;37338;47.426;19.204;2023-09-19T08:37:51;1.50;;;0.45;;
51266;SDS011;37338;47.426;19.204;2023-09-19T08:40:17;1.05;;;0.40;;
51266;SDS011;37338;47.426;19.204;2023-09-19T08:42:50;3.53;;;0.85;;
51266;SDS011;37338;47.426;19.204;2023-09-19T08:45:22;4.18;;;0.60;;
51266;SDS011;37338;47.426;19.204;2023-09-19T08:53:20;1.77;;;0.73;;
51266;SDS011;37338;47.426;19.204;2023-09-19T08:55:53;3.03;;;0.63;;
51266;SDS011;37338;47.426;19.204;2023-09-19T08:58:21;2.67;;;0.80;;
51266;SDS011;37338;47.426;19.204;2023-09-19T09:00:48;1.83;;;0.63;;
51266;SDS011;37338;47.426;19.204;2023-09-19T09:03:14;3.03;;;0.50;;
51266;SDS011;37338;47.426;19.204;2023-09-19T09:05:41;3.90;;;0.70;;
51266;SDS011;37338;47.426;19.204;2023-09-19T09:08:07;1.65;;;0.50;;
51266;SDS011;37338;47.426;19.204;2023-09-19T09:10:32;1.60;;;0.52;;
51266;SDS011;37338;47.426;19.204;2023-09-19T09:12:58;3.33;;;0.90;;
51266;SDS011;37338;47.426;19.204;2023-09-19T09:15:23;1.05;;;0.50;;
51266;SDS011;37338;47.426;19.204;2023-09-19T09:17:50;3.40;;;0.52;;
51266;SDS011;37338;47.426;19.204;2023-09-19T09:20:18;1.00;;;0.50;;
51266;SDS011;37338;47.426;19.204;2023-09-19T09:22:53;1.77;;;0.77;;
51266;SDS011;37338;47.426;19.204;2023-09-19T09:25:19;5.63;;;1.13;;
51266;SDS011;37338;47.426;19.204;2023-09-19T09:27:58;1.88;;;0.60;;
51266;SDS011;37338;47.426;19.204;2023-09-19T09:30:35;3.83;;;0.70;;
51266;SDS011;37338;47.426;19.204;2023-09-19T09:33:10;1.50;;;0.55;;
51266;SDS011;37338;47.426;19.204;2023-09-19T09:38:20;3.47;;;0.57;;
51266;SDS011;37338;47.426;19.204;2023-09-19T09:40:51;3.88;;;0.57;;
51266;SDS011;37338;47.426;19.204;2023-09-19T09:43:29;1.73;;;0.65;;
51266;SDS011;37338;47.426;19.204;2023-09-19T09:48:45;2.78;;;0.95;;
51266;SDS011;37338;47.426;19.204;2023-09-19T09:51:31;1.20;;;0.50;;
51266;SDS011;37338;47.426;19.204;2023-09-19T09:54:13;1.25;;;0.57;;
51266;SDS011;37338;47.426;19.204;2023-09-19T09:59:43;1.17;;;0.55;;
51266;SDS011;37338;47.426;19.204;2023-09-19T10:02:15;2.65;;;0.90;;
51266;SDS011;37338;47.426;19.204;2023-09-19T10:04:53;3.28;;;0.90;;
51266;SDS011;37338;47.426;19.204;2023-09-19T10:07:33;2.00;;;0.60;;
51266;SDS011;37338;47.426;19.204;2023-09-19T10:10:01;1.38;;;0.60;;
51266;SDS011;37338;47.426;19.204;2023-09-19T10:12:47;1.95;;;1.08;;
51266;SDS011;37338;47.426;19.204;2023-09-19T10:15:16;2.70;;;1.10;;
51266;SDS011;37338;47.426;19.204;2023-09-19T10:17:45;2.05;;;0.98;;
51266;SDS011;37338;47.426;19.204;2023-09-19T10:20:14;3.22;;;1.35;;
51266;SDS011;37338;47.426;19.204;2023-09-19T10:22:52;2.88;;;1.27;;
51266;SDS011;37338;47.426;19.204;2023-09-19T10:25:23;0.85;;;0.85;;
51266;SDS011;37338;47.426;19.204;2023-09-19T10:27:50;5.35;;;1.20;;
51266;SDS011;37338;47.426;19.204;2023-09-19T10:30:18;1.92;;;1.42;;
51266;SDS011;37338;47.426;19.204;2023-09-19T10:32:45;2.60;;;1.58;;
51266;SDS011;37338;47.426;19.204;2023-09-19T10:35:12;5.47;;;1.92;;
51266;SDS011;37338;47.426;19.204;2023-09-19T10:37:40;3.78;;;1.10;;
51266;SDS011;37338;47.426;19.204;2023-09-19T10:40:06;1.88;;;1.10;;
51266;SDS011;37338;47.426;19.204;2023-09-19T10:42:37;1.77;;;1.00;;
51266;SDS011;37338;47.426;19.204;2023-09-19T10:45:03;2.88;;;1.20;;
51266;SDS011;37338;47.426;19.204;2023-09-19T10:47:32;1.30;;;1.20;;
51266;SDS011;37338;47.426;19.204;2023-09-19T10:49:57;1.70;;;0.82;;
51266;SDS011;37338;47.426;19.204;2023-09-19T10:52:24;3.03;;;1.20;;
51266;SDS011;37338;47.426;19.204;2023-09-19T10:54:51;6.20;;;1.70;;
51266;SDS011;37338;47.426;19.204;2023-09-19T10:57:20;4.40;;;1.13;;
51266;SDS011;37338;47.426;19.204;2023-09-19T11:00:02;1.35;;;0.55;;
51266;SDS011;37338;47.426;19.204;2023-09-19T11:06:07;2.88;;;0.93;;
51266;SDS011;37338;47.426;19.204;2023-09-19T11:09:00;2.92;;;1.42;;
51266;SDS011;37338;47.426;19.204;2023-09-19T11:30:50;1.85;;;1.00;;
51266;SDS011;37338;47.426;19.204;2023-09-19T11:33:20;4.18;;;1.50;;
51266;SDS011;37338;47.426;19.204;2023-09-19T11:43:47;1.33;;;1.15;;
51266;SDS011;37338;47.426;19.204;2023-09-19T11:46:12;2.40;;;0.93;;
51266;SDS011;37338;47.426;19.204;2023-09-19T11:48:41;0.93;;;0.70;;
51266;SDS011;37338;47.426;19.204;2023-09-19T11:51:10;2.17;;;0.60;;
51266;SDS011;37338;47.426;19.204;2023-09-19T11:53:43;3.17;;;0.52;;
51266;SDS011;37338;47.426;19.204;2023-09-19T11:56:23;3.35;;;0.50;;
51266;SDS011;37338;47.426;19.204;2023-09-19T11:58:51;1.63;;;0.50;;
51266;SDS011;37338;47.426;19.204;2023-09-19T12:03:54;1.52;;;0.32;;
51266;SDS011;37338;47.426;19.204;2023-09-19T12:06:22;1.05;;;0.32;;
51266;SDS011;37338;47.426;19.204;2023-09-19T12:08:48;1.60;;;0.60;;
51266;SDS011;37338;47.426;19.204;2023-09-19T12:11:16;2.58;;;0.30;;
51266;SDS011;37338;47.426;19.204;2023-09-19T12:13:42;3.20;;;1.17;;
51266;SDS011;37338;47.426;19.204;2023-09-19T12:16:12;3.40;;;0.93;;
51266;SDS011;37338;47.426;19.204;2023-09-19T12:18:42;1.88;;;0.32;;
51266;SDS011;37338;47.426;19.204;2023-09-19T12:21:20;1.25;;;0.38;;
51266;SDS011;37338;47.426;19.204;2023-09-19T12:26:26;3.47;;;0.60;;
51266;SDS011;37338;47.426;19.204;2023-09-19T12:28:54;1.45;;;0.30;;
51266;SDS011;37338;47.426;19.204;2023-09-19T12:31:20;0.68;;;0.30;;
51266;SDS011;37338;47.426;19.204;2023-09-19T12:33:45;2.75;;;0.52;;
51266;SDS011;37338;47.426;19.204;2023-09-19T12:36:23;4.80;;;0.63;;
51266;SDS011;37338;47.426;19.204;2023-09-19T12:38:50;1.95;;;0.40;;
51266;SDS011;37338;47.426;19.204;2023-09-19T12:41:18;2.85;;;1.00;;
51266;SDS011;37338;47.426;19.204;2023-09-19T12:43:45;1.33;;;0.47;;
51266;SDS011;37338;47.426;19.204;2023-09-19T12:46:11;2.75;;;0.43;;
51266;SDS011;37338;47.426;19.204;2023-09-19T12:48:36;1.98;;;0.65;;
51266;SDS011;37338;47.426;19.204;2023-09-19T12:51:10;1.92;;;0.60;;
51266;SDS011;37338;47.426;19.204;2023-09-19T12:53:41;2.40;;;0.30;;
51266;SDS011;37338;47.426;19.204;2023-09-19T12:56:15;1.58;;;0.65;;
51266;SDS011;37338;47.426;19.204;2023-09-19T13:01:19;2.63;;;0.60;;
51266;SDS011;37338;47.426;19.204;2023-09-19T13:03:45;4.45;;;0.75;;
51266;SDS011;37338;47.426;19.204;2023-09-19T13:06:11;2.38;;;0.95;;
51266;SDS011;37338;47.426;19.204;2023-09-19T13:08:40;3.08;;;1.27;;
51266;SDS011;37338;47.426;19.204;2023-09-19T13:11:16;1.60;;;0.57;;
51266;SDS011;37338;47.426;19.204;2023-09-19T13:13:50;1.80;;;0.60;;
51266;SDS011;37338;47.426;19.204;2023-09-19T13:16:27;2.25;;;0.50;;
51266;SDS011;37338;47.426;19.204;2023-09-19T13:18:53;3.10;;;0.70;;
51266;SDS011;37338;47.426;19.204;2023-09-19T13:21:33;1.48;;;0.52;;
51266;SDS011;37338;47.426;19.204;2023-09-19T13:26:55;2.65;;;0.88;;
51266;SDS011;37338;47.426;19.204;2023-09-19T13:29:21;3.53;;;1.65;;
51266;SDS011;37338;47.426;19.204;2023-09-19T13:31:50;2.42;;;0.80;;
51266;SDS011;37338;47.426;19.204;2023-09-19T13:34:19;3.30;;;1.40;;
51266;SDS011;37338;47.426;19.204;2023-09-19T13:36:45;3.50;;;0.73;;
51266;SDS011;37338;47.426;19.204;2023-09-19T13:39:17;4.10;;;0.75;;
51266;SDS011;37338;47.426;19.204;2023-09-19T13:41:45;1.95;;;0.50;;
51266;SDS011;37338;47.426;19.204;2023-09-19T13:44:12;1.58;;;0.45;;
51266;SDS011;37338;47.426;19.204;2023-09-19T13:46:37;2.10;;;0.57;;
51266;SDS011;37338;47.426;19.204;2023-09-19T13:49:03;2.10;;;0.73;;
51266;SDS011;37338;47.426;19.204;2023-09-19T13:51:29;3.33;;;0.70;;
51266;SDS011;37338;47.426;19.204;2023-09-19T13:53:55;5.57;;;0.90;;
51266;SDS011;37338;47.426;19.204;2023-09-19T13:56:21;4.28;;;0.77;;
51266;SDS011;37338;47.426;19.204;2023-09-19T13:58:46;3.95;;;0.70;;
51266;SDS011;37338;47.426;19.204;2023-09-19T14:01:12;5.25;;;0.70;;
51266;SDS011;37338;47.426;19.204;2023-09-19T14:03:41;3.70;;;0.50;;
51266;SDS011;37338;47.426;19.204;2023-09-19T14:06:11;2.72;;;0.57;;
51266;SDS011;37338;47.426;19.204;2023-09-19T14:08:37;2.90;;;0.50;;
51266;SDS011;37338;47.426;19.204;2023-09-19T14:11:06;5.63;;;1.08;;
51266;SDS011;37338;47.426;19.204;2023-09-19T14:13:32;2.53;;;0.80;;
51266;SDS011;37338;47.426;19.204;2023-09-19T14:16:02;1.50;;;0.60;;
51266;SDS011;37338;47.426;19.204;2023-09-19T14:18:31;2.60;;;1.02;;
51266;SDS011;37338;47.426;19.204;2023-09-19T14:20:57;3.60;;;0.80;;
51266;SDS011;37338;47.426;19.204;2023-09-19T14:23:22;3.95;;;0.60;;
51266;SDS011;37338;47.426;19.204;2023-09-19T14:25:48;2.10;;;0.85;;
51266;SDS011;37338;47.426;19.204;2023-09-19T14:28:14;1.55;;;0.50;;
51266;SDS011;37338;47.426;19.204;2023-09-19T14:30:39;2.97;;;0.80;;
51266;SDS011;37338;47.426;19.204;2023-09-19T14:33:04;2.95;;;0.50;;
51266;SDS011;37338;47.426;19.204;2023-09-19T14:35:31;5.70;;;0.75;;
51266;SDS011;37338;47.426;19.204;2023-09-19T14:37:56;2.25;;;0.65;;
51266;SDS011;37338;47.426;19.204;2023-09-19T14:40:22;2.33;;;0.60;;
51266;SDS011;37338;47.426;19.204;2023-09-19T14:42:47;3.63;;;0.95;;
51266;SDS011;37338;47.426;19.204;2023-09-19T14:45:13;2.05;;;0.82;;
51266;SDS011;37338;47.426;19.204;2023-09-19T14:47:42;5.50;;;0.90;;
51266;SDS011;37338;47.426;19.204;2023-09-19T14:50:08;2.67;;;1.10;;
51266;SDS011;37338;47.426;19.204;2023-09-19T14:52:34;2.20;;;0.70;;
51266;SDS011;37338;47.426;19.204;2023-09-19T14:55:01;1.38;;;0.50;;
51266;SDS011;37338;47.426;19.204;2023-09-19T14:57:26;4.63;;;0.70;;
51266;SDS011;37338;47.426;19.204;2023-09-19T14:59:52;2.03;;;0.60;;
51266;SDS011;37338;47.426;19.204;2023-09-19T15:02:17;3.80;;;1.00;;
51266;SDS011;37338;47.426;19.204;2023-09-19T15:04:43;3.53;;;0.65;;
51266;SDS011;37338;47.426;19.204;2023-09-19T15:07:13;2.70;;;1.08;;
51266;SDS011;37338;47.426;19.204;2023-09-19T15:09:40;4.10;;;0.73;;
51266;SDS011;37338;47.426;19.204;2023-09-19T15:12:06;4.60;;;1.45;;
51266;SDS011;37338;47.426;19.204;2023-09-19T15:14:32;1.95;;;0.73;;
51266;SDS011;37338;47.426;19.204;2023-09-19T15:16:57;2.03;;;0.95;;
51266;SDS011;37338;47.426;19.204;2023-09-19T15:19:22;2.28;;;0.70;;
51266;SDS011;37338;47.426;19.204;2023-09-19T15:21:48;2.45;;;0.95;;
51266;SDS011;37338;47.426;19.204;2023-09-19T15:24:13;5.65;;;0.85;;
51266;SDS011;37338;47.426;19.204;2023-09-19T15:26:39;3.42;;;0.80;;
51266;SDS011;37338;47.426;19.204;2023-09-19T15:29:08;7.00;;;1.10;;
51266;SDS011;37338;47.426;19.204;2023-09-19T15:31:34;2.83;;;0.45;;
51266;SDS011;37338;47.426;19.204;2023-09-19T15:34:03;1.95;;;0.50;;
51266;SDS011;37338;47.426;19.204;2023-09-19T15:36:30;2.47;;;0.52;;
51266;SDS011;37338;47.426;19.204;2023-09-19T15:38:56;3.15;;;0.60;;
51266;SDS011;37338;47.426;19.204;2023-09-19T15:41:22;3.63;;;1.20;;
51266;SDS011;37338;47.426;19.204;2023-09-19T15:43:48;1.15;;;0.70;;
51266;SDS011;37338;47.426;19.204;2023-09-19T15:46:14;5.38;;;1.00;;
51266;SDS011;37338;47.426;19.204;2023-09-19T15:48:40;2.17;;;0.63;;
51266;SDS011;37338;47.426;19.204;2023-09-19T15:51:05;2.55;;;0.73;;